sensor_id;sensor_type;location;lat;lon;timestamp;P1;durP1;ratioP1;P2;durP2;ratioP2
27293;SDS011;14785;52.556;13.430;2023-08-20T00:00:37;19.52;;;17.50;;
27293;SDS011;14785;52.556;13.430;2023-08-20T00:03:04;22.15;;;17.73;;
27293;SDS011;14785;52.556;13.430;2023-08-20T00:05:38;18.30;;;16.40;;
27293;SDS011;14785;52.556;13.430;2023-08-20T00:08:04;19.00;;;17.10;;
27293;SDS011;14785;52.556;13.430;2023-08-20T00:10:30;19.38;;;17.52;;
27293;SDS011;14785;52.556;13.430;2023-08-20T00:12:58;20.25;;;18.08;;
27293;SDS011;14785;52.556;13.430;2023-08-20T00:15:25;19.67;;;18.00;;
27293;SDS011;14785;52.556;13.430;2023-08-20T00:17:54;19.52;;;17.52;;
27293;SDS011;14785;52.556;13.430;2023-08-20T00:20:20;19.25;;;17.25;;
27293;SDS011;14785;52.556;13.430;2023-08-20T00:25:12;19.48;;;17.48;;
27293;SDS011;14785;52.556;13.430;2023-08-20T00:27:39;20.92;;;18.92;;
27293;SDS011;14785;52.556;13.430;2023-08-20T00:30:06;19.45;;;17.63;;
27293;SDS011;14785;52.556;13.430;2023-08-20T00:32:32;19.80;;;17.67;;
27293;SDS011;14785;52.556;13.430;2023-08-20T00:34:57;22.70;;;20.37;;
27293;SDS011;14785;52.556;13.430;2023-08-20T00:37:23;20.40;;;18.40;;
27293;SDS011;14785;52.556;13.430;2023-08-20T00:39:48;20.27;;;18.33;;
27293;SDS011;14785;52.556;13.430;2023-08-20T00:42:14;19.60;;;17.70;;
27293;SDS011;14785;52.556;13.430;2023-08-20T00:44:40;20.23;;;18.15;;
27293;SDS011;14785;52.556;13.430;2023-08-20T00:47:14;20.73;;;18.42;;
27293;SDS011;14785;52.556;13.430;2023-08-20T00:49:40;19.50;;;17.50;;
27293;SDS011;14785;52.556;13.430;2023-08-20T00:52:07;18.70;;;16.90;;
27293;SDS011;14785;52.556;13.430;2023-08-20T00:54:33;18.23;;;16.13;;
27293;SDS011;14785;52.556;13.430;2023-08-20T00:56:59;19.48;;;17.25;;
27293;SDS011;14785;52.556;13.430;2023-08-20T00:59:27;18.85;;;17.00;;
27293;SDS011;14785;52.556;13.430;2023-08-20T01:01:53;21.02;;;16.50;;
27293;SDS011;14785;52.556;13.430;2023-08-20T01:04:19;18.40;;;16.53;;
27293;SDS011;14785;52.556;13.430;2023-08-20T01:12:19;19.05;;;17.15;;
27293;SDS011;14785;52.556;13.430;2023-08-20T01:14:45;20.80;;;18.60;;
27293;SDS011;14785;52.556;13.430;2023-08-20T01:17:10;18.48;;;16.50;;
27293;SDS011;14785;52.556;13.430;2023-08-20T01:19:36;20.25;;;18.15;;
27293;SDS011;14785;52.556;13.430;2023-08-20T01:28:28;22.60;;;20.60;;
27293;SDS011;14785;52.556;13.430;2023-08-20T01:30:58;20.55;;;18.48;;
27293;SDS011;14785;52.556;13.430;2023-08-20T01:33:25;20.45;;;18.50;;
27293;SDS011;14785;52.556;13.430;2023-08-20T01:35:52;21.85;;;19.75;;
27293;SDS011;14785;52.556;13.430;2023-08-20T01:38:18;23.98;;;21.55;;
27293;SDS011;14785;52.556;13.430;2023-08-20T01:40:43;25.30;;;23.03;;
27293;SDS011;14785;52.556;13.430;2023-08-20T01:43:08;25.30;;;22.67;;
27293;SDS011;14785;52.556;13.430;2023-08-20T01:45:34;25.43;;;23.30;;
27293;SDS011;14785;52.556;13.430;2023-08-20T01:47:59;21.57;;;19.37;;
27293;SDS011;14785;52.556;13.430;2023-08-20T01:50:25;24.43;;;22.33;;
27293;SDS011;14785;52.556;13.430;2023-08-20T01:52:50;20.00;;;18.13;;
27293;SDS011;14785;52.556;13.430;2023-08-20T01:55:15;20.97;;;19.07;;
27293;SDS011;14785;52.556;13.430;2023-08-20T01:57:41;20.30;;;18.30;;
27293;SDS011;14785;52.556;13.430;2023-08-20T02:00:06;19.20;;;17.37;;
27293;SDS011;14785;52.556;13.430;2023-08-20T02:02:33;21.52;;;19.30;;
27293;SDS011;14785;52.556;13.430;2023-08-20T02:04:59;26.50;;;24.20;;
27293;SDS011;14785;52.556;13.430;2023-08-20T02:07:25;24.95;;;22.50;;
27293;SDS011;14785;52.556;13.430;2023-08-20T02:09:50;20.70;;;18.60;;
27293;SDS011;14785;52.556;13.430;2023-08-20T02:12:15;22.37;;;18.60;;
27293;SDS011;14785;52.556;13.430;2023-08-20T02:14:41;22.67;;;20.10;;
27293;SDS011;14785;52.556;13.430;2023-08-20T02:17:06;21.10;;;19.30;;
27293;SDS011;14785;52.556;13.430;2023-08-20T02:19:32;25.55;;;21.45;;
27293;SDS011;14785;52.556;13.430;2023-08-20T02:21:57;21.53;;;19.30;;
27293;SDS011;14785;52.556;13.430;2023-08-20T02:24:23;29.23;;;26.65;;
27293;SDS011;14785;52.556;13.430;2023-08-20T02:26:48;26.67;;;22.23;;
27293;SDS011;14785;52.556;13.430;2023-08-20T02:29:14;22.63;;;19.80;;
27293;SDS011;14785;52.556;13.430;2023-08-20T02:31:39;21.13;;;18.93;;
27293;SDS011;14785;52.556;13.430;2023-08-20T02:34:04;22.57;;;17.43;;
27293;SDS011;14785;52.556;13.430;2023-08-20T02:36:30;21.80;;;19.57;;
27293;SDS011;14785;52.556;13.430;2023-08-20T02:38:55;24.97;;;20.33;;
27293;SDS011;14785;52.556;13.430;2023-08-20T02:41:20;25.43;;;23.13;;
27293;SDS011;14785;52.556;13.430;2023-08-20T02:43:46;20.87;;;18.67;;
27293;SDS011;14785;52.556;13.430;2023-08-20T02:46:11;24.13;;;21.63;;
27293;SDS011;14785;52.556;13.430;2023-08-20T02:48:37;22.23;;;20.30;;
27293;SDS011;14785;52.556;13.430;2023-08-20T02:51:02;27.13;;;24.60;;
27293;SDS011;14785;52.556;13.430;2023-08-20T02:53:28;23.60;;;21.43;;
27293;SDS011;14785;52.556;13.430;2023-08-20T02:55:53;35.42;;;32.55;;
27293;SDS011;14785;52.556;13.430;2023-08-20T02:58:19;23.63;;;21.52;;
27293;SDS011;14785;52.556;13.430;2023-08-20T03:00:45;22.73;;;20.40;;
27293;SDS011;14785;52.556;13.430;2023-08-20T03:03:10;34.90;;;32.13;;
27293;SDS011;14785;52.556;13.430;2023-08-20T03:08:02;24.97;;;22.73;;
27293;SDS011;14785;52.556;13.430;2023-08-20T03:10:30;32.72;;;29.95;;
27293;SDS011;14785;52.556;13.430;2023-08-20T03:12:57;51.15;;;47.35;;
27293;SDS011;14785;52.556;13.430;2023-08-20T03:15:23;23.02;;;20.60;;
27293;SDS011;14785;52.556;13.430;2023-08-20T03:17:48;23.17;;;20.67;;
27293;SDS011;14785;52.556;13.430;2023-08-20T03:20:13;26.77;;;24.43;;
27293;SDS011;14785;52.556;13.430;2023-08-20T03:22:39;25.00;;;22.57;;
27293;SDS011;14785;52.556;13.430;2023-08-20T03:25:05;21.23;;;19.10;;
27293;SDS011;14785;52.556;13.430;2023-08-20T03:27:30;24.13;;;21.65;;
27293;SDS011;14785;52.556;13.430;2023-08-20T03:29:56;29.92;;;27.27;;
27293;SDS011;14785;52.556;13.430;2023-08-20T03:32:23;28.50;;;26.17;;
27293;SDS011;14785;52.556;13.430;2023-08-20T03:34:48;24.77;;;22.23;;
27293;SDS011;14785;52.556;13.430;2023-08-20T03:37:14;26.85;;;22.77;;
27293;SDS011;14785;52.556;13.430;2023-08-20T03:39:40;27.00;;;22.23;;
27293;SDS011;14785;52.556;13.430;2023-08-20T03:42:05;26.67;;;24.13;;
27293;SDS011;14785;52.556;13.430;2023-08-20T03:44:31;37.37;;;33.87;;
27293;SDS011;14785;52.556;13.430;2023-08-20T03:46:56;21.88;;;19.67;;
27293;SDS011;14785;52.556;13.430;2023-08-20T03:49:22;21.00;;;19.00;;
27293;SDS011;14785;52.556;13.430;2023-08-20T03:51:47;29.10;;;26.60;;
27293;SDS011;14785;52.556;13.430;2023-08-20T03:54:13;51.83;;;47.77;;
27293;SDS011;14785;52.556;13.430;2023-08-20T03:56:38;27.42;;;23.98;;
27293;SDS011;14785;52.556;13.430;2023-08-20T03:59:04;23.23;;;20.87;;
27293;SDS011;14785;52.556;13.430;2023-08-20T04:01:29;35.13;;;32.37;;
27293;SDS011;14785;52.556;13.430;2023-08-20T04:03:55;27.27;;;24.97;;
27293;SDS011;14785;52.556;13.430;2023-08-20T04:06:20;51.63;;;47.60;;
27293;SDS011;14785;52.556;13.430;2023-08-20T04:08:45;55.20;;;51.17;;
27293;SDS011;14785;52.556;13.430;2023-08-20T04:11:11;27.00;;;24.47;;
27293;SDS011;14785;52.556;13.430;2023-08-20T04:13:36;32.63;;;29.77;;
27293;SDS011;14785;52.556;13.430;2023-08-20T04:16:02;28.85;;;25.88;;
27293;SDS011;14785;52.556;13.430;2023-08-20T04:18:27;22.35;;;19.85;;
27293;SDS011;14785;52.556;13.430;2023-08-20T04:20:53;24.67;;;21.93;;
27293;SDS011;14785;52.556;13.430;2023-08-20T04:23:19;28.02;;;25.40;;
27293;SDS011;14785;52.556;13.430;2023-08-20T04:25:45;23.33;;;21.00;;
27293;SDS011;14785;52.556;13.430;2023-08-20T04:28:11;23.67;;;21.00;;
27293;SDS011;14785;52.556;13.430;2023-08-20T04:30:37;22.15;;;19.30;;
27293;SDS011;14785;52.556;13.430;2023-08-20T04:33:03;26.17;;;23.50;;
27293;SDS011;14785;52.556;13.430;2023-08-20T04:35:29;81.07;;;75.85;;
27293;SDS011;14785;52.556;13.430;2023-08-20T04:37:54;83.77;;;78.03;;
27293;SDS011;14785;52.556;13.430;2023-08-20T04:40:20;29.27;;;25.83;;
27293;SDS011;14785;52.556;13.430;2023-08-20T04:42:45;36.47;;;33.47;;
27293;SDS011;14785;52.556;13.430;2023-08-20T04:45:10;34.17;;;30.93;;
27293;SDS011;14785;52.556;13.430;2023-08-20T04:47:36;27.07;;;21.17;;
27293;SDS011;14785;52.556;13.430;2023-08-20T04:52:28;24.88;;;21.80;;
27293;SDS011;14785;52.556;13.430;2023-08-20T04:54:54;25.80;;;23.03;;
27293;SDS011;14785;52.556;13.430;2023-08-20T04:57:19;28.10;;;25.30;;
27293;SDS011;14785;52.556;13.430;2023-08-20T04:59:44;33.33;;;30.37;;
27293;SDS011;14785;52.556;13.430;2023-08-20T05:02:13;31.70;;;29.00;;
27293;SDS011;14785;52.556;13.430;2023-08-20T05:04:39;39.78;;;36.13;;
27293;SDS011;14785;52.556;13.430;2023-08-20T05:09:30;28.27;;;24.83;;
27293;SDS011;14785;52.556;13.430;2023-08-20T05:11:56;28.15;;;25.25;;
27293;SDS011;14785;52.556;13.430;2023-08-20T05:14:21;37.00;;;33.67;;
27293;SDS011;14785;52.556;13.430;2023-08-20T05:16:47;46.00;;;42.07;;
27293;SDS011;14785;52.556;13.430;2023-08-20T05:19:12;28.33;;;25.20;;
27293;SDS011;14785;52.556;13.430;2023-08-20T05:21:38;31.43;;;28.57;;
27293;SDS011;14785;52.556;13.430;2023-08-20T05:24:03;33.90;;;30.80;;
27293;SDS011;14785;52.556;13.430;2023-08-20T05:26:29;33.25;;;30.02;;
27293;SDS011;14785;52.556;13.430;2023-08-20T05:28:54;30.67;;;27.83;;
27293;SDS011;14785;52.556;13.430;2023-08-20T05:31:20;32.40;;;28.83;;
27293;SDS011;14785;52.556;13.430;2023-08-20T05:33:45;33.20;;;30.10;;
27293;SDS011;14785;52.556;13.430;2023-08-20T05:36:11;33.23;;;28.57;;
27293;SDS011;14785;52.556;13.430;2023-08-20T05:38:36;32.60;;;29.13;;
27293;SDS011;14785;52.556;13.430;2023-08-20T05:41:02;33.60;;;30.33;;
27293;SDS011;14785;52.556;13.430;2023-08-20T05:43:27;46.07;;;32.70;;
27293;SDS011;14785;52.556;13.430;2023-08-20T05:45:52;31.20;;;27.83;;
27293;SDS011;14785;52.556;13.430;2023-08-20T05:48:18;34.10;;;30.80;;
27293;SDS011;14785;52.556;13.430;2023-08-20T05:50:43;34.60;;;30.43;;
27293;SDS011;14785;52.556;13.430;2023-08-20T05:53:09;32.97;;;29.73;;
27293;SDS011;14785;52.556;13.430;2023-08-20T05:55:34;27.40;;;24.40;;
27293;SDS011;14785;52.556;13.430;2023-08-20T05:58:00;40.80;;;37.10;;
27293;SDS011;14785;52.556;13.430;2023-08-20T06:00:25;30.43;;;27.33;;
27293;SDS011;14785;52.556;13.430;2023-08-20T06:02:51;32.47;;;28.90;;
27293;SDS011;14785;52.556;13.430;2023-08-20T06:05:16;30.43;;;26.70;;
27293;SDS011;14785;52.556;13.430;2023-08-20T06:07:42;37.03;;;24.73;;
27293;SDS011;14785;52.556;13.430;2023-08-20T06:10:07;34.10;;;30.87;;
27293;SDS011;14785;52.556;13.430;2023-08-20T06:12:34;29.63;;;26.83;;
27293;SDS011;14785;52.556;13.430;2023-08-20T06:15:00;31.00;;;28.03;;
27293;SDS011;14785;52.556;13.430;2023-08-20T06:17:25;26.90;;;24.20;;
27293;SDS011;14785;52.556;13.430;2023-08-20T06:19:52;32.10;;;28.92;;
27293;SDS011;14785;52.556;13.430;2023-08-20T06:22:19;36.25;;;33.08;;
27293;SDS011;14785;52.556;13.430;2023-08-20T06:24:44;34.97;;;32.07;;
27293;SDS011;14785;52.556;13.430;2023-08-20T06:27:10;39.37;;;35.63;;
27293;SDS011;14785;52.556;13.430;2023-08-20T06:29:35;30.77;;;27.90;;
27293;SDS011;14785;52.556;13.430;2023-08-20T06:32:00;33.43;;;30.03;;
27293;SDS011;14785;52.556;13.430;2023-08-20T06:34:27;28.30;;;25.50;;
27293;SDS011;14785;52.556;13.430;2023-08-20T06:36:52;26.52;;;23.88;;
27293;SDS011;14785;52.556;13.430;2023-08-20T06:39:19;33.73;;;30.37;;
27293;SDS011;14785;52.556;13.430;2023-08-20T06:41:45;27.25;;;24.40;;
27293;SDS011;14785;52.556;13.430;2023-08-20T06:44:10;26.38;;;23.83;;
27293;SDS011;14785;52.556;13.430;2023-08-20T06:46:36;27.20;;;24.53;;
27293;SDS011;14785;52.556;13.430;2023-08-20T06:49:02;29.13;;;26.13;;
27293;SDS011;14785;52.556;13.430;2023-08-20T06:51:29;27.80;;;25.00;;
27293;SDS011;14785;52.556;13.430;2023-08-20T06:53:54;22.43;;;20.03;;
27293;SDS011;14785;52.556;13.430;2023-08-20T06:56:21;30.27;;;23.05;;
27293;SDS011;14785;52.556;13.430;2023-08-20T06:58:47;25.37;;;22.70;;
27293;SDS011;14785;52.556;13.430;2023-08-20T07:01:12;33.33;;;30.13;;
27293;SDS011;14785;52.556;13.430;2023-08-20T07:03:41;43.20;;;39.63;;
27293;SDS011;14785;52.556;13.430;2023-08-20T07:06:08;25.13;;;22.63;;
27293;SDS011;14785;52.556;13.430;2023-08-20T07:08:35;25.83;;;23.23;;
27293;SDS011;14785;52.556;13.430;2023-08-20T07:11:00;25.20;;;20.98;;
27293;SDS011;14785;52.556;13.430;2023-08-20T07:13:26;26.55;;;20.25;;
27293;SDS011;14785;52.556;13.430;2023-08-20T07:15:51;32.83;;;29.40;;
27293;SDS011;14785;52.556;13.430;2023-08-20T07:18:17;24.20;;;21.67;;
27293;SDS011;14785;52.556;13.430;2023-08-20T07:20:44;40.45;;;36.70;;
27293;SDS011;14785;52.556;13.430;2023-08-20T07:23:10;23.83;;;21.27;;
27293;SDS011;14785;52.556;13.430;2023-08-20T07:25:39;29.00;;;22.50;;
27293;SDS011;14785;52.556;13.430;2023-08-20T07:28:06;43.40;;;39.60;;
27293;SDS011;14785;52.556;13.430;2023-08-20T07:30:32;36.67;;;33.60;;
27293;SDS011;14785;52.556;13.430;2023-08-20T07:32:57;27.83;;;24.67;;
27293;SDS011;14785;52.556;13.430;2023-08-20T07:35:26;22.77;;;20.17;;
27293;SDS011;14785;52.556;13.430;2023-08-20T07:37:51;24.27;;;21.70;;
27293;SDS011;14785;52.556;13.430;2023-08-20T07:40:16;46.33;;;42.40;;
27293;SDS011;14785;52.556;13.430;2023-08-20T07:42:42;27.67;;;24.00;;
27293;SDS011;14785;52.556;13.430;2023-08-20T07:45:08;29.23;;;26.27;;
27293;SDS011;14785;52.556;13.430;2023-08-20T07:50:03;25.90;;;20.25;;
27293;SDS011;14785;52.556;13.430;2023-08-20T07:52:29;25.60;;;22.90;;
27293;SDS011;14785;52.556;13.430;2023-08-20T07:54:56;26.52;;;21.92;;
27293;SDS011;14785;52.556;13.430;2023-08-20T07:57:22;29.20;;;26.23;;
27293;SDS011;14785;52.556;13.430;2023-08-20T07:59:48;31.27;;;28.02;;
27293;SDS011;14785;52.556;13.430;2023-08-20T08:02:17;25.45;;;22.75;;
27293;SDS011;14785;52.556;13.430;2023-08-20T08:04:43;28.13;;;25.15;;
27293;SDS011;14785;52.556;13.430;2023-08-20T08:07:09;24.42;;;21.88;;
27293;SDS011;14785;52.556;13.430;2023-08-20T08:09:36;26.60;;;23.00;;
27293;SDS011;14785;52.556;13.430;2023-08-20T08:12:01;27.73;;;22.70;;
27293;SDS011;14785;52.556;13.430;2023-08-20T08:14:27;30.17;;;27.05;;
27293;SDS011;14785;52.556;13.430;2023-08-20T08:16:53;39.60;;;36.13;;
27293;SDS011;14785;52.556;13.430;2023-08-20T08:19:19;31.35;;;28.10;;
27293;SDS011;14785;52.556;13.430;2023-08-20T08:21:46;29.45;;;26.40;;
27293;SDS011;14785;52.556;13.430;2023-08-20T08:24:13;22.88;;;20.25;;
27293;SDS011;14785;52.556;13.430;2023-08-20T08:26:38;21.48;;;18.75;;
27293;SDS011;14785;52.556;13.430;2023-08-20T08:29:05;20.35;;;18.30;;
27293;SDS011;14785;52.556;13.430;2023-08-20T08:31:32;22.15;;;19.92;;
27293;SDS011;14785;52.556;13.430;2023-08-20T08:33:57;24.35;;;22.05;;
27293;SDS011;14785;52.556;13.430;2023-08-20T08:36:23;25.20;;;22.73;;
27293;SDS011;14785;52.556;13.430;2023-08-20T08:38:52;21.35;;;18.10;;
27293;SDS011;14785;52.556;13.430;2023-08-20T08:41:21;21.85;;;19.48;;
27293;SDS011;14785;52.556;13.430;2023-08-20T08:43:53;23.65;;;19.27;;
27293;SDS011;14785;52.556;13.430;2023-08-20T08:46:28;23.55;;;18.02;;
27293;SDS011;14785;52.556;13.430;2023-08-20T08:48:54;21.63;;;18.73;;
27293;SDS011;14785;52.556;13.430;2023-08-20T08:51:20;17.37;;;15.60;;
27293;SDS011;14785;52.556;13.430;2023-08-20T08:53:45;20.47;;;17.07;;
27293;SDS011;14785;52.556;13.430;2023-08-20T08:56:11;17.73;;;16.08;;
27293;SDS011;14785;52.556;13.430;2023-08-20T08:58:36;17.20;;;15.47;;
27293;SDS011;14785;52.556;13.430;2023-08-20T09:01:05;16.75;;;13.55;;
27293;SDS011;14785;52.556;13.430;2023-08-20T09:03:30;19.03;;;15.57;;
27293;SDS011;14785;52.556;13.430;2023-08-20T09:05:57;16.58;;;14.73;;
27293;SDS011;14785;52.556;13.430;2023-08-20T09:08:31;15.07;;;13.57;;
27293;SDS011;14785;52.556;13.430;2023-08-20T09:10:59;14.30;;;12.80;;
27293;SDS011;14785;52.556;13.430;2023-08-20T09:13:32;15.18;;;13.77;;
27293;SDS011;14785;52.556;13.430;2023-08-20T09:15:59;15.52;;;12.57;;
27293;SDS011;14785;52.556;13.430;2023-08-20T09:18:27;14.63;;;12.55;;
27293;SDS011;14785;52.556;13.430;2023-08-20T09:20:53;13.93;;;12.53;;
27293;SDS011;14785;52.556;13.430;2023-08-20T09:23:18;14.70;;;12.47;;
27293;SDS011;14785;52.556;13.430;2023-08-20T09:25:44;13.65;;;11.98;;
27293;SDS011;14785;52.556;13.430;2023-08-20T09:28:10;14.43;;;12.80;;
27293;SDS011;14785;52.556;13.430;2023-08-20T09:30:36;12.82;;;11.60;;
27293;SDS011;14785;52.556;13.430;2023-08-20T09:33:11;12.98;;;11.07;;
27293;SDS011;14785;52.556;13.430;2023-08-20T09:35:37;12.48;;;11.25;;
27293;SDS011;14785;52.556;13.430;2023-08-20T09:38:05;13.77;;;9.80;;
27293;SDS011;14785;52.556;13.430;2023-08-20T09:40:31;11.60;;;10.50;;
27293;SDS011;14785;52.556;13.430;2023-08-20T09:42:56;13.85;;;11.18;;
27293;SDS011;14785;52.556;13.430;2023-08-20T09:45:25;14.88;;;10.52;;
27293;SDS011;14785;52.556;13.430;2023-08-20T09:47:56;11.25;;;9.77;;
27293;SDS011;14785;52.556;13.430;2023-08-20T09:50:24;11.60;;;9.15;;
27293;SDS011;14785;52.556;13.430;2023-08-20T09:52:58;12.63;;;9.90;;
27293;SDS011;14785;52.556;13.430;2023-08-20T09:55:35;11.30;;;10.00;;
27293;SDS011;14785;52.556;13.430;2023-08-20T09:58:03;13.13;;;11.13;;
27293;SDS011;14785;52.556;13.430;2023-08-20T10:00:30;14.50;;;10.82;;
27293;SDS011;14785;52.556;13.430;2023-08-20T10:02:56;10.85;;;9.77;;
27293;SDS011;14785;52.556;13.430;2023-08-20T10:05:23;12.15;;;9.90;;
27293;SDS011;14785;52.556;13.430;2023-08-20T10:07:50;11.90;;;9.68;;
27293;SDS011;14785;52.556;13.430;2023-08-20T10:15:11;10.02;;;9.15;;
27293;SDS011;14785;52.556;13.430;2023-08-20T10:17:39;12.00;;;8.45;;
27293;SDS011;14785;52.556;13.430;2023-08-20T10:20:07;8.75;;;7.65;;
27293;SDS011;14785;52.556;13.430;2023-08-20T10:27:33;7.88;;;6.97;;
27293;SDS011;14785;52.556;13.430;2023-08-20T10:30:01;8.55;;;7.45;;
27293;SDS011;14785;52.556;13.430;2023-08-20T10:35:16;7.60;;;6.93;;
27293;SDS011;14785;52.556;13.430;2023-08-20T10:40:54;6.97;;;5.97;;
27293;SDS011;14785;52.556;13.430;2023-08-20T10:43:30;6.82;;;6.25;;
27293;SDS011;14785;52.556;13.430;2023-08-20T10:48:40;9.13;;;6.75;;
27293;SDS011;14785;52.556;13.430;2023-08-20T10:51:15;6.78;;;6.05;;
27293;SDS011;14785;52.556;13.430;2023-08-20T10:54:02;6.90;;;6.35;;
27293;SDS011;14785;52.556;13.430;2023-08-20T10:56:48;6.50;;;6.00;;
27293;SDS011;14785;52.556;13.430;2023-08-20T11:01:50;6.50;;;5.97;;
27293;SDS011;14785;52.556;13.430;2023-08-20T11:04:18;6.15;;;5.65;;
27293;SDS011;14785;52.556;13.430;2023-08-20T11:06:45;5.28;;;4.88;;
27293;SDS011;14785;52.556;13.430;2023-08-20T11:09:14;5.93;;;5.13;;
27293;SDS011;14785;52.556;13.430;2023-08-20T11:11:40;5.43;;;4.90;;
27293;SDS011;14785;52.556;13.430;2023-08-20T11:14:08;5.07;;;4.70;;
27293;SDS011;14785;52.556;13.430;2023-08-20T11:16:39;4.90;;;4.50;;
27293;SDS011;14785;52.556;13.430;2023-08-20T11:19:05;6.22;;;4.68;;
27293;SDS011;14785;52.556;13.430;2023-08-20T11:21:34;5.13;;;4.72;;
27293;SDS011;14785;52.556;13.430;2023-08-20T11:26:26;5.20;;;4.80;;
27293;SDS011;14785;52.556;13.430;2023-08-20T11:31:19;5.43;;;4.93;;
27293;SDS011;14785;52.556;13.430;2023-08-20T11:36:12;4.70;;;4.30;;
27293;SDS011;14785;52.556;13.430;2023-08-20T11:38:51;7.55;;;4.40;;
27293;SDS011;14785;52.556;13.430;2023-08-20T11:41:17;7.45;;;4.47;;
27293;SDS011;14785;52.556;13.430;2023-08-20T11:43:50;4.80;;;4.40;;
27293;SDS011;14785;52.556;13.430;2023-08-20T11:46:18;5.15;;;4.72;;
27293;SDS011;14785;52.556;13.430;2023-08-20T11:49:01;5.25;;;4.75;;
27293;SDS011;14785;52.556;13.430;2023-08-20T11:51:39;4.43;;;4.03;;
27293;SDS011;14785;52.556;13.430;2023-08-20T11:54:14;6.13;;;4.93;;
27293;SDS011;14785;52.556;13.430;2023-08-20T11:56:47;4.60;;;4.25;;
27293;SDS011;14785;52.556;13.430;2023-08-20T11:59:14;4.80;;;4.30;;
27293;SDS011;14785;52.556;13.430;2023-08-20T12:01:41;6.57;;;4.60;;
27293;SDS011;14785;52.556;13.430;2023-08-20T12:04:07;5.30;;;4.80;;
27293;SDS011;14785;52.556;13.430;2023-08-20T12:06:34;4.57;;;4.28;;
27293;SDS011;14785;52.556;13.430;2023-08-20T12:09:01;7.03;;;4.90;;
27293;SDS011;14785;52.556;13.430;2023-08-20T12:11:29;5.63;;;4.60;;
27293;SDS011;14785;52.556;13.430;2023-08-20T12:13:57;4.93;;;4.53;;
27293;SDS011;14785;52.556;13.430;2023-08-20T12:16:24;5.13;;;4.25;;
27293;SDS011;14785;52.556;13.430;2023-08-20T12:18:52;5.60;;;5.03;;
27293;SDS011;14785;52.556;13.430;2023-08-20T12:21:18;5.05;;;4.65;;
27293;SDS011;14785;52.556;13.430;2023-08-20T12:26:09;4.93;;;4.43;;
27293;SDS011;14785;52.556;13.430;2023-08-20T12:28:34;6.07;;;4.80;;
27293;SDS011;14785;52.556;13.430;2023-08-20T12:33:28;4.40;;;4.10;;
27293;SDS011;14785;52.556;13.430;2023-08-20T12:35:55;5.72;;;4.32;;
27293;SDS011;14785;52.556;13.430;2023-08-20T12:38:23;4.53;;;4.13;;
27293;SDS011;14785;52.556;13.430;2023-08-20T12:43:13;5.77;;;5.27;;
27293;SDS011;14785;52.556;13.430;2023-08-20T12:48:06;4.30;;;4.00;;
27293;SDS011;14785;52.556;13.430;2023-08-20T12:50:34;5.28;;;4.05;;
27293;SDS011;14785;52.556;13.430;2023-08-20T12:55:26;4.70;;;4.27;;
27293;SDS011;14785;52.556;13.430;2023-08-20T12:57:53;4.50;;;4.10;;
27293;SDS011;14785;52.556;13.430;2023-08-20T13:00:20;4.53;;;4.15;;
27293;SDS011;14785;52.556;13.430;2023-08-20T13:02:46;4.40;;;4.10;;
27293;SDS011;14785;52.556;13.430;2023-08-20T13:05:12;5.20;;;3.88;;
27293;SDS011;14785;52.556;13.430;2023-08-20T13:07:38;6.88;;;6.35;;
27293;SDS011;14785;52.556;13.430;2023-08-20T13:12:29;4.55;;;3.88;;
27293;SDS011;14785;52.556;13.430;2023-08-20T13:14:57;4.60;;;4.20;;
27293;SDS011;14785;52.556;13.430;2023-08-20T13:17:22;4.10;;;3.80;;
27293;SDS011;14785;52.556;13.430;2023-08-20T13:22:13;4.00;;;3.67;;
27293;SDS011;14785;52.556;13.430;2023-08-20T13:27:05;3.97;;;3.75;;
27293;SDS011;14785;52.556;13.430;2023-08-20T13:29:32;4.10;;;3.80;;
27293;SDS011;14785;52.556;13.430;2023-08-20T13:31:59;4.00;;;3.70;;
27293;SDS011;14785;52.556;13.430;2023-08-20T13:36:51;5.60;;;3.53;;
27293;SDS011;14785;52.556;13.430;2023-08-20T13:41:43;4.00;;;3.60;;
27293;SDS011;14785;52.556;13.430;2023-08-20T13:46:34;4.97;;;4.38;;
27293;SDS011;14785;52.556;13.430;2023-08-20T13:51:24;4.40;;;4.10;;
27293;SDS011;14785;52.556;13.430;2023-08-20T13:56:17;3.77;;;3.50;;
27293;SDS011;14785;52.556;13.430;2023-08-20T13:58:45;5.03;;;3.90;;
27293;SDS011;14785;52.556;13.430;2023-08-20T14:01:12;6.30;;;4.60;;
27293;SDS011;14785;52.556;13.430;2023-08-20T14:03:38;3.83;;;3.55;;
27293;SDS011;14785;52.556;13.430;2023-08-20T14:06:06;4.55;;;4.15;;
27293;SDS011;14785;52.556;13.430;2023-08-20T14:08:32;5.87;;;3.90;;
27293;SDS011;14785;52.556;13.430;2023-08-20T14:13:22;4.00;;;3.70;;
27293;SDS011;14785;52.556;13.430;2023-08-20T14:18:13;4.87;;;3.40;;
27293;SDS011;14785;52.556;13.430;2023-08-20T14:23:04;4.43;;;4.03;;
27293;SDS011;14785;52.556;13.430;2023-08-20T14:27:54;3.30;;;3.10;;
27293;SDS011;14785;52.556;13.430;2023-08-20T14:32:45;3.83;;;3.53;;
27293;SDS011;14785;52.556;13.430;2023-08-20T14:37:37;4.63;;;3.47;;
27293;SDS011;14785;52.556;13.430;2023-08-20T14:40:02;4.30;;;3.20;;
27293;SDS011;14785;52.556;13.430;2023-08-20T14:42:32;4.18;;;3.78;;
27293;SDS011;14785;52.556;13.430;2023-08-20T14:44:58;4.38;;;3.75;;
27293;SDS011;14785;52.556;13.430;2023-08-20T14:49:49;3.40;;;3.20;;
27293;SDS011;14785;52.556;13.430;2023-08-20T14:54:40;4.00;;;3.70;;
27293;SDS011;14785;52.556;13.430;2023-08-20T14:57:07;3.90;;;3.58;;
27293;SDS011;14785;52.556;13.430;2023-08-20T14:59:32;5.22;;;3.65;;
27293;SDS011;14785;52.556;13.430;2023-08-20T15:04:23;4.73;;;4.33;;
27293;SDS011;14785;52.556;13.430;2023-08-20T15:09:15;4.65;;;4.35;;
27293;SDS011;14785;52.556;13.430;2023-08-20T15:11:43;5.05;;;3.58;;
27293;SDS011;14785;52.556;13.430;2023-08-20T15:14:09;6.13;;;3.25;;
27293;SDS011;14785;52.556;13.430;2023-08-20T15:16:35;4.07;;;3.78;;
27293;SDS011;14785;52.556;13.430;2023-08-20T15:19:02;5.78;;;4.18;;
27293;SDS011;14785;52.556;13.430;2023-08-20T15:21:27;4.68;;;3.85;;
27293;SDS011;14785;52.556;13.430;2023-08-20T15:26:18;4.50;;;4.07;;
27293;SDS011;14785;52.556;13.430;2023-08-20T15:28:44;4.75;;;3.25;;
27293;SDS011;14785;52.556;13.430;2023-08-20T15:31:09;4.53;;;3.58;;
27293;SDS011;14785;52.556;13.430;2023-08-20T15:33:36;3.53;;;3.20;;
27293;SDS011;14785;52.556;13.430;2023-08-20T15:36:01;4.10;;;3.42;;
27293;SDS011;14785;52.556;13.430;2023-08-20T15:38:29;5.20;;;3.75;;
27293;SDS011;14785;52.556;13.430;2023-08-20T15:40:54;5.45;;;3.70;;
27293;SDS011;14785;52.556;13.430;2023-08-20T15:43:20;6.28;;;3.88;;
27293;SDS011;14785;52.556;13.430;2023-08-20T15:45:46;4.13;;;3.70;;
27293;SDS011;14785;52.556;13.430;2023-08-20T15:48:12;4.00;;;3.70;;
27293;SDS011;14785;52.556;13.430;2023-08-20T15:50:37;4.40;;;4.00;;
27293;SDS011;14785;52.556;13.430;2023-08-20T15:53:03;4.47;;;4.07;;
27293;SDS011;14785;52.556;13.430;2023-08-20T15:55:30;4.10;;;3.70;;
27293;SDS011;14785;52.556;13.430;2023-08-20T15:57:56;4.07;;;3.67;;
27293;SDS011;14785;52.556;13.430;2023-08-20T16:00:21;4.78;;;4.05;;
27293;SDS011;14785;52.556;13.430;2023-08-20T16:02:48;4.10;;;3.80;;